createdAt,value
2019-02-22T05:27:01.138Z,0.1
2019-02-22T05:29:01.264Z,0.2
2019-02-22T05:30:01.107Z,0.3
2019-02-22T05:32:06.107Z,0.4
2019-02-22T05:33:02.058Z,0.5
2019-02-22T05:35:01.414Z,0.6
2019-02-22T05:36:01.148Z,0.7
2019-02-22T05:37:06.106Z,0.9
2019-02-22T05:38:01.117Z,1.0
2019-02-22T05:39:01.110Z,1.2
2019-02-22T05:40:01.257Z,1.4
2019-02-22T05:41:01.106Z,1.7
2019-02-22T05:42:06.108Z,1.9
2019-02-22T05:43:01.106Z,2.3
2019-02-22T05:44:01.107Z,2.7
2019-02-22T05:45:01.272Z,3.2
2019-02-22T05:46:01.114Z,3.8
2019-02-22T05:47:06.116Z,4.5
2019-02-22T05:48:01.179Z,5.3
2019-02-22T05:49:01.112Z,6.3
2019-02-22T05:50:01.265Z,7.4
2019-02-22T05:51:01.112Z,8.7
2019-02-22T05:52:01.151Z,10.2
2019-02-22T05:53:01.107Z,12.1
2019-02-22T05:54:01.112Z,14.4
2019-02-22T05:55:01.261Z,17.2
2019-02-22T05:56:01.106Z,20.5
2019-02-22T05:57:06.118Z,24.2
2019-02-22T05:58:01.117Z,28.4
2019-02-22T05:59:01.115Z,33.3
2019-02-22T06:00:01.327Z,38.9
2019-02-22T06:01:01.132Z,45.7
2019-02-22T06:02:01.144Z,53.5
2019-02-22T06:03:01.110Z,62.4
2019-02-22T06:04:01.113Z,71.9
2019-02-22T06:05:01.337Z,82.1
2019-02-22T06:06:01.109Z,93.4
2019-02-22T06:07:01.261Z,106.5
2019-02-22T06:08:01.110Z,122.5
2019-02-22T06:09:01.114Z,141.0
2019-02-22T06:10:02.315Z,161.3
2019-02-22T06:11:01.121Z,182.7
2019-02-22T06:12:06.112Z,208.4
2019-02-22T06:13:01.111Z,237.7
2019-02-22T06:14:01.114Z,269.3
2019-02-22T06:15:01.267Z,304.8
2019-02-22T06:16:01.112Z,346.3
2019-02-22T06:17:01.147Z,392.7
2019-02-22T06:18:01.112Z,441.8
2019-02-22T06:19:01.115Z,492.7
2019-02-22T06:20:01.277Z,555.3
2019-02-22T06:21:01.117Z,637.5
2019-02-22T06:22:01.124Z,732.9
2019-02-22T06:23:06.113Z,835.7
2019-02-22T06:24:02.800Z,937.7
2019-02-22T06:25:02.112Z,1041.5
2019-02-22T06:27:01.098Z,1166.5
2019-02-22T06:28:01.135Z,1306.6
2019-02-22T06:29:01.098Z,1445.3
2019-02-22T06:30:01.108Z,1582.8
2019-02-22T06:31:01.266Z,1725.8
2019-02-22T06:32:01.099Z,1847.9
2019-02-22T06:33:01.131Z,1938.1
2019-02-22T06:34:01.096Z,2028.9
2019-02-22T06:35:01.199Z,2118.5
2019-02-22T06:36:01.268Z,2220.1
2019-02-22T06:37:02.366Z,2332.9
2019-02-22T06:38:01.136Z,2412.7
2019-02-22T06:39:01.101Z,2502.5
2019-02-22T06:40:01.104Z,2641.9
2019-02-22T06:41:01.256Z,2816.8
2019-02-22T06:42:01.107Z,2982.0
2019-02-22T06:43:01.138Z,3070.7
2019-02-22T06:44:01.101Z,3137.3
2019-02-22T06:45:01.109Z,3233.4
2019-02-22T06:46:01.248Z,3345.7
2019-02-22T06:47:01.097Z,3523.3
2019-02-22T06:48:01.230Z,3796.7
2019-02-22T06:49:01.101Z,4097.9
2019-02-22T06:50:01.104Z,4443.1
2019-02-22T06:51:01.255Z,4710.7
2019-02-22T06:52:01.102Z,4900.5
2019-02-22T06:53:01.104Z,5093.9
2019-02-22T06:54:06.103Z,5280.2
2019-02-22T06:55:01.109Z,5476.4
2019-02-22T06:56:01.248Z,5667.1
2019-02-22T06:57:01.169Z,5820.3
2019-02-22T06:58:01.112Z,6037.7
2019-02-22T06:59:01.145Z,6292.3
2019-02-22T07:00:01.103Z,6536.3
2019-02-22T07:01:01.255Z,6736.2
2019-02-22T07:02:01.115Z,6874.0
2019-02-22T07:03:01.148Z,6971.3
2019-02-22T07:04:01.147Z,7052.1
2019-02-22T07:05:01.102Z,7102.7
2019-02-22T07:06:01.277Z,7200.5
2019-02-22T07:07:01.347Z,7384.2
2019-02-22T07:08:02.078Z,7587.2
2019-02-22T07:09:01.146Z,7800.5
2019-02-22T07:10:01.105Z,7977.9
2019-02-22T07:11:01.336Z,8226.3
2019-02-22T07:12:01.110Z,8514.3
2019-02-22T07:13:01.108Z,8773.3
2019-02-22T07:14:01.116Z,9060.1
2019-02-22T07:15:01.401Z,9415.1
2019-02-22T07:16:01.262Z,9755.5
2019-02-22T07:17:01.074Z,10117.5
2019-02-22T07:18:01.117Z,10495.2
2019-02-22T07:19:01.111Z,10859.8
2019-02-22T07:20:01.111Z,11198.9
2019-02-22T07:21:01.266Z,11563.8
2019-02-22T07:22:01.112Z,11899.3
2019-02-22T07:23:01.114Z,12216.1
2019-02-22T07:24:02.684Z,12518.9
2019-02-22T07:25:01.120Z,12953.6
2019-02-22T07:26:01.268Z,13428.1
2019-02-22T07:27:01.113Z,13926.7
2019-02-22T07:28:01.119Z,14454.1
2019-02-22T07:29:01.118Z,14846.5
2019-02-22T07:30:01.114Z,14884.2
2019-02-22T07:31:01.262Z,14922.1
2019-02-22T07:32:05.618Z,15005.9
2019-02-22T07:33:01.086Z,14997.3
2019-02-22T07:35:01.241Z,14975.5
2019-02-22T07:36:01.254Z,15057.1
2019-02-22T07:37:01.193Z,15268.1
2019-02-22T07:38:01.106Z,15506.2
2019-02-22T07:39:01.103Z,15844.9
2019-02-22T07:40:01.102Z,16053.7
2019-02-22T07:41:01.547Z,15998.3
2019-02-22T07:42:01.149Z,15851.1
2019-02-22T07:43:07.872Z,15762.4
2019-02-22T07:44:01.101Z,15786.7
2019-02-22T07:45:01.102Z,16005.9
2019-02-22T07:46:01.319Z,16592.6
2019-02-22T07:47:01.108Z,17192.7
2019-02-22T07:48:01.105Z,17748.5
2019-02-22T07:49:01.107Z,18405.3
2019-02-22T07:50:01.109Z,19298.7
2019-02-22T07:51:01.257Z,20192.7
2019-02-22T07:52:01.107Z,21169.8
2019-02-22T07:53:01.113Z,22345.0
2019-02-22T07:54:01.112Z,23802.3
2019-02-22T07:55:01.130Z,25722.5
2019-02-22T07:56:01.730Z,27823.2
2019-02-22T07:57:01.107Z,29435.7
2019-02-22T07:58:01.106Z,30593.8
2019-02-22T07:59:02.987Z,31068.1
2019-02-22T08:00:01.109Z,31095.4
2019-02-22T08:01:01.252Z,30923.6
2019-02-22T08:02:01.110Z,30706.3
2019-02-22T08:03:01.108Z,30459.3
2019-02-22T08:04:01.214Z,30196.5
2019-02-22T08:05:01.116Z,29756.3
2019-02-22T08:06:01.298Z,29263.7
2019-02-22T08:08:01.099Z,28830.1
2019-02-22T08:09:01.110Z,28228.5
2019-02-22T08:10:01.098Z,27177.9
2019-02-22T08:11:01.099Z,25799.5
2019-02-22T08:12:01.313Z,24374.7
2019-02-22T08:13:01.101Z,23338.6
2019-02-22T08:14:01.099Z,22861.0
2019-02-22T08:15:01.108Z,23187.2
2019-02-22T08:16:01.106Z,23529.9
2019-02-22T08:17:01.252Z,23769.2
2019-02-22T08:18:01.108Z,24297.5
2019-02-22T08:19:01.986Z,24762.7
2019-02-22T08:20:02.135Z,25069.9
2019-02-22T08:21:01.100Z,25356.5
2019-02-22T08:22:03.393Z,25560.5
2019-02-22T08:23:01.111Z,25785.5
2019-02-22T08:24:01.114Z,25791.5
2019-02-22T08:25:01.123Z,26278.8
2019-02-22T08:26:06.109Z,26868.6
2019-02-22T08:27:01.309Z,27605.8
2019-02-22T08:28:01.107Z,28307.8
2019-02-22T08:29:01.105Z,28986.2
2019-02-22T08:30:01.099Z,29276.7
2019-02-22T08:31:02.086Z,29911.5
2019-02-22T08:32:01.257Z,30521.9
2019-02-22T08:33:01.107Z,30647.8
2019-02-22T08:34:01.102Z,30622.1
2019-02-22T08:35:01.109Z,30633.3
2019-02-22T08:36:01.123Z,30474.7
2019-02-22T08:37:01.259Z,30343.1
2019-02-22T08:38:01.118Z,29993.8
2019-02-22T08:39:01.116Z,29783.1
2019-02-22T08:40:02.251Z,29232.9
2019-02-22T08:41:01.112Z,28602.3
2019-02-22T08:42:01.395Z,27947.8
2019-02-22T08:43:01.122Z,27588.5
2019-02-22T08:44:01.114Z,27377.5
2019-02-22T08:45:01.116Z,27477.4
2019-02-22T08:46:01.114Z,27888.3
2019-02-22T08:47:01.294Z,29166.0
2019-02-22T08:48:01.117Z,31147.3
2019-02-22T08:49:01.117Z,33545.9
2019-02-22T08:50:01.116Z,36007.9
2019-02-22T08:51:01.118Z,38307.0
2019-02-22T08:53:01.248Z,40100.8
2019-02-22T08:54:01.098Z,41384.5
2019-02-22T08:55:01.104Z,42677.7
2019-02-22T08:56:01.104Z,44177.1
2019-02-22T08:57:01.108Z,45205.4
2019-02-22T08:58:01.256Z,45684.7
2019-02-22T08:59:01.103Z,45796.6
2019-02-22T09:00:01.117Z,45521.5
2019-02-22T09:01:01.105Z,44761.8
2019-02-22T09:02:06.109Z,43409.1
2019-02-22T09:03:01.281Z,41337.5
2019-02-22T09:04:06.109Z,38827.5
2019-02-22T09:05:01.105Z,36116.3
2019-02-22T09:06:01.107Z,33521.3
2019-02-22T09:07:01.104Z,31310.7
2019-02-22T09:08:01.254Z,29727.4
2019-02-22T09:09:01.107Z,28718.9
2019-02-22T09:10:01.116Z,28017.2
2019-02-22T09:11:01.107Z,27397.4
2019-02-22T09:12:01.108Z,27722.3
2019-02-22T09:13:01.265Z,29726.2
2019-02-22T09:14:01.110Z,31995.8
2019-02-22T09:15:01.129Z,34325.5
2019-02-22T09:16:01.107Z,36976.9
2019-02-22T09:17:01.113Z,39890.5
2019-02-22T09:18:01.249Z,42881.7
2019-02-22T09:19:01.115Z,45867.1
2019-02-22T09:20:01.112Z,48867.9
2019-02-22T09:21:01.111Z,51772.9
2019-02-22T09:22:01.117Z,54597.5
2019-02-22T09:23:01.254Z,57314.8
2019-02-22T09:24:01.107Z,59872.5
2019-02-22T09:25:01.107Z,62126.2
2019-02-22T09:26:01.111Z,64030.0
2019-02-22T09:27:01.109Z,65423.0
2019-02-22T09:28:01.263Z,65535.0
2019-02-22T09:30:01.117Z,65535.0
2019-02-22T09:45:01.147Z,65535.0
2019-02-22T10:00:01.404Z,65535.0
2019-02-22T10:15:01.204Z,65535.0
2019-02-22T10:30:01.115Z,65535.0
2019-02-22T10:45:01.324Z,65535.0
2019-02-22T11:00:01.104Z,65535.0
2019-02-22T11:15:01.114Z,65535.0
2019-02-22T11:30:02.060Z,65535.0
2019-02-22T11:45:02.377Z,65535.0
2019-02-22T12:00:01.121Z,65535.0
2019-02-22T12:15:01.121Z,65535.0
2019-02-22T12:30:01.257Z,65535.0
2019-02-22T12:45:03.028Z,65535.0
2019-02-22T13:00:01.123Z,65535.0
2019-02-22T13:15:01.114Z,65535.0
2019-02-22T13:31:01.137Z,65535.0
2019-02-22T13:45:01.387Z,65535.0
2019-02-22T14:00:02.134Z,65535.0
2019-02-22T14:15:01.166Z,65535.0
2019-02-22T14:30:01.107Z,65535.0
2019-02-22T14:45:01.951Z,65535.0
2019-02-22T15:00:01.133Z,65535.0
2019-02-22T15:04:01.302Z,65525.6
2019-02-22T15:05:01.098Z,65368.6
2019-02-22T15:06:06.098Z,65253.5
2019-02-22T15:07:01.108Z,65129.8
2019-02-22T15:08:01.094Z,64979.5
2019-02-22T15:09:01.244Z,64799.2
2019-02-22T15:10:01.100Z,64547.9
2019-02-22T15:11:01.290Z,64127.0
2019-02-22T15:12:01.107Z,63547.6
2019-02-22T15:13:01.108Z,62724.3
2019-02-22T15:14:01.319Z,61600.5
2019-02-22T15:15:01.064Z,60191.6
2019-02-22T15:16:03.692Z,58591.9
2019-02-22T15:17:01.107Z,56784.7
2019-02-22T15:18:01.100Z,54812.7
2019-02-22T15:19:01.316Z,52801.7
2019-02-22T15:20:01.103Z,50907.5
2019-02-22T15:21:02.087Z,48968.1
2019-02-22T15:22:06.106Z,47052.1
2019-02-22T15:23:02.557Z,45181.9
2019-02-22T15:24:01.257Z,43382.7
2019-02-22T15:25:01.109Z,41755.8
2019-02-22T15:26:01.108Z,40478.5
2019-02-22T15:27:06.115Z,39537.5
2019-02-22T15:28:01.111Z,38940.3
2019-02-22T15:29:01.258Z,38772.8
2019-02-22T15:30:01.286Z,38892.7
2019-02-22T15:31:01.219Z,39163.5
2019-02-22T15:32:01.851Z,39572.0
2019-02-22T15:33:01.109Z,40043.3
2019-02-22T15:34:01.322Z,40483.3
2019-02-22T15:35:01.106Z,40919.6
2019-02-22T15:36:01.107Z,41315.7
2019-02-22T15:37:01.109Z,41626.3
2019-02-22T15:38:06.113Z,41851.6
2019-02-22T15:39:01.366Z,42009.1
2019-02-22T15:40:01.116Z,42043.1
2019-02-22T15:41:01.154Z,41889.7
2019-02-22T15:42:03.069Z,41532.8
2019-02-22T15:43:01.135Z,41024.5
2019-02-22T15:44:01.272Z,40323.5
2019-02-22T15:45:01.109Z,39537.2
2019-02-22T15:46:09.300Z,38739.1
2019-02-22T15:47:11.272Z,37928.2
2019-02-22T15:48:06.143Z,37158.5
2019-02-22T15:50:01.317Z,36461.4
2019-02-22T15:51:01.106Z,35791.7
2019-02-22T15:52:01.101Z,35166.5
2019-02-22T15:53:01.124Z,34594.3
2019-02-22T15:54:01.155Z,33994.2
2019-02-22T15:55:01.248Z,33335.9
2019-02-22T15:56:01.098Z,32658.9
2019-02-22T15:57:01.068Z,31944.9
2019-02-22T15:58:01.132Z,31183.8
2019-02-22T15:59:01.097Z,30366.2
2019-02-22T16:00:01.329Z,29508.6
2019-02-22T16:01:01.105Z,28653.9
2019-02-22T16:02:01.096Z,27799.8
2019-02-22T16:03:01.067Z,26991.1
2019-02-22T16:04:06.106Z,26214.2
2019-02-22T16:05:01.297Z,25420.5
2019-02-22T16:06:01.068Z,24609.6
2019-02-22T16:07:01.107Z,23768.3
2019-02-22T16:08:01.101Z,22911.7
2019-02-22T16:09:06.107Z,22115.8
2019-02-22T16:10:01.258Z,21376.9
2019-02-22T16:11:02.130Z,20658.5
2019-02-22T16:12:01.103Z,19966.8
2019-02-22T16:13:01.099Z,19328.7
2019-02-22T16:14:01.138Z,18775.2
2019-02-22T16:15:01.295Z,18292.0
2019-02-22T16:16:01.101Z,17854.5
2019-02-22T16:17:01.110Z,17437.7
2019-02-22T16:18:01.107Z,17030.1
2019-02-22T16:19:06.103Z,16626.5
2019-02-22T16:20:01.316Z,16222.6
2019-02-22T16:21:01.109Z,15828.7
2019-02-22T16:22:01.106Z,15434.1
2019-02-22T16:23:01.109Z,15035.7
2019-02-22T16:24:06.109Z,14627.1
2019-02-22T16:25:01.261Z,14201.6
2019-02-22T16:26:01.105Z,13750.9
2019-02-22T16:27:01.829Z,13274.9
2019-02-22T16:28:01.106Z,12773.5
2019-02-22T16:29:01.135Z,12252.6
2019-02-22T16:30:01.265Z,11724.7
2019-02-22T16:31:01.105Z,11195.5
2019-02-22T16:32:01.109Z,10664.6
2019-02-22T16:33:01.107Z,10131.7
2019-02-22T16:34:01.144Z,9596.6
2019-02-22T16:35:01.262Z,9061.1
2019-02-22T16:36:01.104Z,8515.4
2019-02-22T16:37:01.108Z,7974.0
2019-02-22T16:38:01.112Z,7444.0
2019-02-22T16:39:06.107Z,6933.1
2019-02-22T16:40:01.260Z,6444.1
2019-02-22T16:41:01.108Z,5977.7
2019-02-22T16:42:01.110Z,5531.5
2019-02-22T16:43:01.110Z,5107.7
2019-02-22T16:45:01.611Z,4689.8
2019-02-22T16:46:01.102Z,4297.2
2019-02-22T16:47:01.097Z,3928.3
2019-02-22T16:48:01.214Z,3582.1
2019-02-22T16:49:06.105Z,3256.8
2019-02-22T16:50:01.244Z,2950.5
2019-02-22T16:51:01.104Z,2661.7
2019-02-22T16:52:01.105Z,2390.7
2019-02-22T16:53:01.100Z,2139.0
2019-02-22T16:54:06.104Z,1907.5
2019-02-22T16:55:01.425Z,1695.3
2019-02-22T16:56:01.102Z,1501.6
2019-02-22T16:57:01.100Z,1327.1
2019-02-22T16:58:01.137Z,1172.9
2019-02-22T16:59:01.101Z,1037.9
2019-02-22T17:00:01.259Z,937.0
2019-02-22T17:01:01.106Z,846.6
2019-02-22T17:02:01.118Z,763.5
2019-02-22T17:03:01.137Z,686.1
2019-02-22T17:04:01.106Z,614.3
2019-02-22T17:05:01.343Z,548.3
2019-02-22T17:06:01.110Z,487.7
2019-02-22T17:07:01.095Z,432.3
2019-02-22T17:08:01.141Z,381.9
2019-02-22T17:09:01.231Z,336.1
2019-02-22T17:10:01.315Z,294.4
2019-02-22T17:11:01.105Z,256.5
2019-02-22T17:12:06.304Z,221.7
2019-02-22T17:13:01.138Z,189.3
2019-02-22T17:14:03.077Z,159.0
2019-02-22T17:15:01.287Z,131.7
2019-02-22T17:16:01.099Z,108.3
2019-02-22T17:17:01.111Z,89.2
2019-02-22T17:18:01.145Z,74.0
2019-02-22T17:19:01.108Z,61.8
2019-02-22T17:20:01.261Z,51.7
2019-02-22T17:21:01.111Z,43.5
2019-02-22T17:22:01.110Z,36.7
2019-02-22T17:23:01.148Z,31.0
2019-02-22T17:24:01.115Z,26.2
2019-02-22T17:25:01.270Z,22.1
2019-02-22T17:26:01.111Z,18.7
2019-02-22T17:27:01.108Z,15.8
2019-02-22T17:28:01.144Z,13.3
2019-02-22T17:29:01.114Z,11.2
2019-02-22T17:30:01.263Z,9.4
2019-02-22T17:31:01.115Z,7.9
2019-02-22T17:32:01.114Z,6.6
2019-02-22T17:33:01.142Z,5.5
2019-02-22T17:34:01.113Z,4.6
2019-02-22T17:35:01.265Z,3.9
2019-02-22T17:36:01.107Z,3.3
2019-02-22T17:38:06.102Z,2.7
2019-02-22T17:39:01.108Z,2.3
2019-02-22T17:40:01.256Z,1.9
2019-02-22T17:41:01.104Z,1.5
2019-02-22T17:42:01.099Z,1.3
2019-02-22T17:43:01.235Z,1.0
2019-02-22T17:44:01.098Z,0.8
2019-02-22T17:45:01.313Z,0.7
2019-02-22T17:46:01.100Z,0.5
2019-02-22T17:47:01.100Z,0.4
2019-02-22T17:48:06.105Z,0.3
2019-02-22T17:50:02.399Z,0.2
2019-02-22T17:51:01.099Z,0.1
